createdAt,value
2023-03-20T00:02:07.013Z,8.32
2023-03-20T00:04:34.182Z,8.25
2023-03-20T00:07:00.904Z,8.23
2023-03-20T00:09:28.369Z,8.17
2023-03-20T00:11:55.967Z,8.20
2023-03-20T00:14:24.690Z,8.26
2023-03-20T00:16:52.079Z,8.25
2023-03-20T00:19:32.109Z,8.22
2023-03-20T00:21:58.837Z,8.24
2023-03-20T00:24:25.519Z,8.24
2023-03-20T00:26:53.211Z,8.26
2023-03-20T00:29:31.015Z,8.24
2023-03-20T00:31:58.483Z,8.29
2023-03-20T00:34:29.063Z,8.31
2023-03-20T00:36:56.433Z,8.35
2023-03-20T00:39:23.835Z,8.37
2023-03-20T00:41:57.705Z,8.38
2023-03-20T00:44:50.410Z,8.39
2023-03-20T00:47:20.673Z,8.38
2023-03-20T00:49:50.768Z,8.41
2023-03-20T00:52:18.606Z,8.40
2023-03-20T00:54:45.474Z,8.44
2023-03-20T00:57:38.411Z,8.49
2023-03-20T01:00:07.464Z,8.49
2023-03-20T01:02:55.755Z,8.49
2023-03-20T01:05:25.802Z,8.53
2023-03-20T01:07:54.055Z,8.55
2023-03-20T01:10:27.914Z,8.55
2023-03-20T01:12:56.495Z,8.54
2023-03-20T01:15:27.489Z,8.57
2023-03-20T01:17:54.090Z,8.57
2023-03-20T01:20:27.424Z,8.57
2023-03-20T01:22:54.628Z,8.54
2023-03-20T01:25:21.414Z,8.50
2023-03-20T01:27:53.167Z,8.43
2023-03-20T01:30:26.855Z,8.42
2023-03-20T01:32:54.289Z,8.40
2023-03-20T01:35:24.146Z,8.39
2023-03-20T01:37:52.284Z,8.39
2023-03-20T01:40:33.748Z,8.38
2023-03-20T01:43:03.360Z,8.34
2023-03-20T01:45:36.129Z,8.35
2023-03-20T01:48:17.030Z,8.33
2023-03-20T01:50:43.707Z,8.28
2023-03-20T01:53:26.153Z,8.17
2023-03-20T01:55:59.766Z,8.20
2023-03-20T01:58:38.977Z,8.10
2023-03-20T02:01:09.211Z,8.13
2023-03-20T02:03:36.616Z,8.06
2023-03-20T02:06:32.490Z,8.12
2023-03-20T02:09:16.730Z,8.01
2023-03-20T02:11:46.383Z,7.92
2023-03-20T02:14:14.142Z,7.89
2023-03-20T02:16:59.305Z,7.84
2023-03-20T02:20:14.586Z,7.83
2023-03-20T02:23:23.259Z,7.78
2023-03-20T02:26:15.543Z,7.82
2023-03-20T02:29:16.876Z,7.76
2023-03-20T02:32:05.062Z,7.66
2023-03-20T02:35:06.743Z,7.67
2023-03-20T02:38:19.798Z,7.68
2023-03-20T02:41:09.904Z,7.65
2023-03-20T02:43:48.615Z,7.68
2023-03-20T02:46:39.819Z,7.67
2023-03-20T02:49:28.292Z,7.62
2023-03-20T02:52:05.745Z,7.64
2023-03-20T02:54:50.923Z,7.56
2023-03-20T02:57:36.646Z,7.59
2023-03-20T03:00:14.184Z,7.50
2023-03-20T03:03:19.553Z,7.49
2023-03-20T03:06:06.035Z,7.45
2023-03-20T03:08:39.343Z,7.46
2023-03-20T03:11:08.673Z,7.47
2023-03-20T03:13:42.739Z,7.48
2023-03-20T03:16:14.465Z,7.46
2023-03-20T03:18:43.218Z,7.47
2023-03-20T03:21:16.382Z,7.43
2023-03-20T03:23:48.735Z,7.40
2023-03-20T03:26:23.802Z,7.40
2023-03-20T03:29:04.798Z,7.36
2023-03-20T03:31:32.795Z,7.36
2023-03-20T03:34:01.420Z,7.37
2023-03-20T03:36:56.117Z,7.32
2023-03-20T03:39:52.362Z,7.31
2023-03-20T03:42:39.588Z,7.27
2023-03-20T03:45:17.361Z,7.31
2023-03-20T03:47:52.143Z,7.30
2023-03-20T03:50:29.626Z,7.30
2023-03-20T03:53:02.858Z,7.34
2023-03-20T03:55:37.555Z,7.34
2023-03-20T03:58:09.882Z,7.28
2023-03-20T04:00:38.888Z,7.23
2023-03-20T04:03:07.376Z,7.24
2023-03-20T04:05:37.730Z,7.24
2023-03-20T04:08:06.396Z,7.25
2023-03-20T04:10:33.371Z,7.23
2023-03-20T04:13:00.407Z,7.22
2023-03-20T04:15:27.918Z,7.25
2023-03-20T04:17:55.245Z,7.22
2023-03-20T04:20:23.539Z,7.19
2023-03-20T04:22:50.524Z,7.19
2023-03-20T04:25:21.280Z,7.18
2023-03-20T04:27:49.340Z,7.19
2023-03-20T04:30:38.860Z,7.19
2023-03-20T04:33:14.986Z,7.16
2023-03-20T04:36:12.444Z,7.13
2023-03-20T04:38:40.443Z,7.12
2023-03-20T04:41:08.821Z,7.12
2023-03-20T04:43:35.975Z,7.06
2023-03-20T04:46:02.761Z,7.00
2023-03-20T04:48:29.706Z,7.03
2023-03-20T04:50:56.700Z,7.07
2023-03-20T04:53:30.066Z,7.04
2023-03-20T04:55:56.714Z,6.98
2023-03-20T04:58:23.731Z,6.98
2023-03-20T05:00:50.770Z,7.03
2023-03-20T05:03:17.594Z,7.09
2023-03-20T05:05:44.401Z,7.09
2023-03-20T05:08:11.359Z,7.09
2023-03-20T05:10:38.815Z,7.06
2023-03-20T05:13:34.592Z,7.10
2023-03-20T05:16:16.232Z,7.10
2023-03-20T05:19:15.387Z,7.09
2023-03-20T05:22:01.214Z,7.13
2023-03-20T05:24:50.369Z,7.14
2023-03-20T05:27:32.686Z,7.15
2023-03-20T05:30:19.696Z,7.07
2023-03-20T05:33:15.615Z,7.13
2023-03-20T05:35:54.139Z,7.07
2023-03-20T05:38:31.923Z,7.07
2023-03-20T05:41:25.527Z,7.15
2023-03-20T05:44:04.995Z,7.20
2023-03-20T05:46:54.502Z,7.21
2023-03-20T05:49:53.226Z,7.22
2023-03-20T05:52:36.994Z,7.22
2023-03-20T05:55:10.898Z,7.24
2023-03-20T05:57:50.759Z,7.25
2023-03-20T06:00:27.090Z,7.25
2023-03-20T06:03:13.965Z,7.28
2023-03-20T06:05:55.692Z,7.30
2023-03-20T06:08:22.320Z,7.32
2023-03-20T06:10:52.503Z,7.31
2023-03-20T06:13:19.940Z,7.20
2023-03-20T06:15:46.676Z,7.13
2023-03-20T06:18:16.691Z,7.09
2023-03-20T06:20:43.429Z,7.06
2023-03-20T06:23:10.074Z,7.08
2023-03-20T06:25:36.825Z,7.18
2023-03-20T06:28:04.083Z,7.25
2023-03-20T06:30:31.017Z,7.34
2023-03-20T06:32:58.570Z,7.47
2023-03-20T06:35:33.901Z,7.60
2023-03-20T06:38:01.340Z,7.67
2023-03-20T06:40:28.221Z,7.86
2023-03-20T06:42:55.543Z,8.05
2023-03-20T06:45:24.571Z,8.06
2023-03-20T06:47:59.756Z,8.17
2023-03-20T06:50:27.201Z,8.39
2023-03-20T06:52:54.027Z,8.58
2023-03-20T06:55:47.081Z,8.86
2023-03-20T06:58:13.676Z,8.82
2023-03-20T07:00:40.639Z,8.67
2023-03-20T07:03:08.707Z,8.63
2023-03-20T07:05:35.758Z,8.57
2023-03-20T07:08:07.646Z,8.69
2023-03-20T07:10:35.746Z,8.77
2023-03-20T07:13:02.393Z,8.81
2023-03-20T07:15:30.176Z,8.71
2023-03-20T07:17:57.310Z,8.74
2023-03-20T07:20:26.595Z,8.66
2023-03-20T07:22:53.628Z,8.66
2023-03-20T07:25:41.294Z,8.71
2023-03-20T07:28:11.641Z,8.78
2023-03-20T07:30:42.010Z,8.72
2023-03-20T07:33:09.382Z,8.90
2023-03-20T07:35:36.492Z,9.38
2023-03-20T07:38:03.402Z,9.74
2023-03-20T07:40:30.724Z,9.70
2023-03-20T07:43:01.943Z,9.70
2023-03-20T07:46:07.898Z,9.75
2023-03-20T07:48:36.809Z,9.66
2023-03-20T07:51:03.820Z,9.59
2023-03-20T07:53:30.525Z,9.69
2023-03-20T07:55:57.146Z,9.79
2023-03-20T07:58:23.746Z,9.72
2023-03-20T08:00:50.546Z,9.58
2023-03-20T08:03:17.390Z,9.44
2023-03-20T08:05:45.853Z,9.32
2023-03-20T08:08:13.723Z,9.42
2023-03-20T08:10:40.507Z,9.35
2023-03-20T08:13:07.314Z,9.35
2023-03-20T08:15:34.082Z,9.33
2023-03-20T08:18:00.844Z,9.28
2023-03-20T08:20:27.642Z,9.34
2023-03-20T08:22:54.193Z,9.34
2023-03-20T08:25:20.785Z,9.30
2023-03-20T08:27:48.719Z,9.12
2023-03-20T08:30:15.981Z,9.07
2023-03-20T08:32:42.588Z,9.30
2023-03-20T08:35:22.035Z,9.54
2023-03-20T08:37:56.236Z,9.49
2023-03-20T08:40:23.043Z,9.51
2023-03-20T08:42:49.652Z,9.92
2023-03-20T08:45:17.086Z,10.15
2023-03-20T08:47:43.747Z,10.28
2023-03-20T08:50:11.230Z,10.57
2023-03-20T08:52:37.823Z,10.63
2023-03-20T08:55:04.772Z,10.67
2023-03-20T08:57:31.343Z,10.89
2023-03-20T08:59:58.054Z,11.05
2023-03-20T09:02:36.120Z,10.96
2023-03-20T09:05:03.075Z,11.14
2023-03-20T09:07:29.781Z,11.86
2023-03-20T09:09:56.351Z,11.65
2023-03-20T09:12:22.952Z,11.58
2023-03-20T09:14:49.746Z,12.04
2023-03-20T09:17:16.807Z,11.88
2023-03-20T09:19:44.738Z,11.78
2023-03-20T09:22:15.415Z,11.89
2023-03-20T09:24:41.973Z,11.70
2023-03-20T09:27:08.654Z,11.79
2023-03-20T09:29:35.731Z,11.49
2023-03-20T09:32:02.396Z,11.27
2023-03-20T09:34:29.482Z,11.04
2023-03-20T09:36:56.199Z,10.89
2023-03-20T09:39:23.321Z,10.53
2023-03-20T09:41:57.245Z,10.81
2023-03-20T09:45:03.559Z,10.93
2023-03-20T09:47:47.001Z,10.77
2023-03-20T09:50:26.028Z,10.82
2023-03-20T09:53:38.669Z,10.73
2023-03-20T09:56:10.782Z,10.80
2023-03-20T09:58:38.602Z,10.84
2023-03-20T10:01:08.426Z,10.85
2023-03-20T10:03:51.135Z,10.89
2023-03-20T10:06:18.364Z,11.00
2023-03-20T10:08:46.848Z,10.91
2023-03-20T10:11:46.512Z,11.12
2023-03-20T10:14:37.975Z,11.26
2023-03-20T10:17:19.545Z,11.31
2023-03-20T10:19:49.074Z,11.34
2023-03-20T10:22:15.623Z,11.37
2023-03-20T10:24:49.799Z,11.41
2023-03-20T10:27:28.223Z,11.22
2023-03-20T10:30:13.840Z,11.07
2023-03-20T10:32:52.736Z,10.91
2023-03-20T10:35:26.317Z,10.94
2023-03-20T10:38:15.154Z,10.97
2023-03-20T10:40:43.432Z,10.93
2023-03-20T10:43:21.844Z,11.11
2023-03-20T10:45:53.955Z,11.30
2023-03-20T10:48:27.116Z,11.41
2023-03-20T10:51:00.401Z,11.41
2023-03-20T10:53:32.645Z,11.47
2023-03-20T10:56:05.313Z,11.54
2023-03-20T10:58:37.594Z,11.75
2023-03-20T11:01:04.713Z,11.86
2023-03-20T11:03:32.835Z,11.85
2023-03-20T11:06:09.753Z,12.08
2023-03-20T11:08:41.164Z,12.14
2023-03-20T11:11:08.407Z,12.05
2023-03-20T11:13:41.932Z,11.95
2023-03-20T11:16:23.117Z,11.65
2023-03-20T11:18:52.236Z,11.55
2023-03-20T11:21:27.868Z,11.48
2023-03-20T11:23:55.354Z,11.45
2023-03-20T11:26:34.116Z,11.16
2023-03-20T11:29:01.100Z,11.27
2023-03-20T11:31:37.095Z,11.33
2023-03-20T11:34:16.017Z,11.30
2023-03-20T11:37:10.553Z,11.44
2023-03-20T11:39:39.870Z,11.42
2023-03-20T11:42:24.102Z,11.33
2023-03-20T11:45:01.483Z,11.37
2023-03-20T11:47:32.674Z,11.42
2023-03-20T11:50:01.629Z,11.47
2023-03-20T11:52:33.301Z,11.64
2023-03-20T11:55:03.313Z,11.68
2023-03-20T11:57:31.969Z,11.46
2023-03-20T12:00:02.540Z,11.54
2023-03-20T12:02:51.460Z,11.51
2023-03-20T12:05:29.994Z,11.56
2023-03-20T12:08:01.013Z,11.64
2023-03-20T12:10:32.948Z,11.66
2023-03-20T12:13:05.496Z,11.56
2023-03-20T12:15:37.066Z,11.60
2023-03-20T12:18:21.487Z,11.64
2023-03-20T12:21:06.555Z,11.53
2023-03-20T12:23:33.153Z,11.61
2023-03-20T12:26:11.018Z,11.57
2023-03-20T12:28:48.311Z,11.75
2023-03-20T12:31:26.569Z,11.65
2023-03-20T12:33:53.358Z,11.54
2023-03-20T12:36:31.731Z,11.40
2023-03-20T12:38:59.095Z,11.20
2023-03-20T12:41:30.572Z,11.13
2023-03-20T12:44:06.105Z,11.07
2023-03-20T12:46:56.127Z,10.96
2023-03-20T12:49:43.144Z,10.83
2023-03-20T12:52:45.895Z,10.72
2023-03-20T12:55:31.041Z,10.67
2023-03-20T12:58:07.246Z,10.75
2023-03-20T13:00:40.445Z,10.50
2023-03-20T13:03:33.246Z,10.28
2023-03-20T13:06:15.551Z,10.19
2023-03-20T13:09:02.577Z,10.23
2023-03-20T13:11:55.676Z,10.27
2023-03-20T13:14:34.351Z,10.43
2023-03-20T13:17:20.455Z,10.52
2023-03-20T13:19:55.652Z,10.50
2023-03-20T13:22:34.374Z,10.57
2023-03-20T13:25:11.396Z,10.56
2023-03-20T13:27:57.385Z,10.82
2023-03-20T13:30:33.363Z,10.76
2023-03-20T13:33:18.875Z,10.56
2023-03-20T13:35:59.075Z,10.46
2023-03-20T13:38:31.444Z,10.64
2023-03-20T13:41:04.201Z,10.50
2023-03-20T13:43:34.471Z,10.43
2023-03-20T13:46:09.892Z,10.40
2023-03-20T13:48:38.929Z,10.61
2023-03-20T13:51:11.634Z,10.65
2023-03-20T13:53:47.426Z,10.77
2023-03-20T13:56:44.282Z,10.85
2023-03-20T13:59:29.846Z,10.76
2023-03-20T14:02:08.584Z,10.85
2023-03-20T14:04:35.469Z,10.88
2023-03-20T14:07:02.174Z,11.00
2023-03-20T14:09:37.009Z,10.76
2023-03-20T14:12:08.782Z,10.79
2023-03-20T14:14:56.434Z,10.68
2023-03-20T14:17:32.496Z,10.58
2023-03-20T14:20:12.644Z,10.55
2023-03-20T14:22:43.571Z,10.65
2023-03-20T14:25:18.341Z,10.78
2023-03-20T14:28:23.184Z,10.90
2023-03-20T14:30:51.403Z,10.83
2023-03-20T14:33:18.840Z,10.65
2023-03-20T14:35:50.409Z,10.55
2023-03-20T14:38:30.715Z,10.59
2023-03-20T14:41:04.826Z,10.63
2023-03-20T14:43:45.647Z,10.70
2023-03-20T14:46:30.610Z,10.63
2023-03-20T14:48:57.270Z,10.82
2023-03-20T14:51:56.698Z,10.69
2023-03-20T14:54:29.567Z,10.64
2023-03-20T14:57:07.993Z,10.76
2023-03-20T14:59:34.849Z,10.78
2023-03-20T15:02:03.155Z,10.74
2023-03-20T15:04:37.704Z,10.53
2023-03-20T15:07:13.507Z,10.26
2023-03-20T15:09:44.051Z,10.10
2023-03-20T15:12:15.244Z,10.09
2023-03-20T15:15:00.866Z,10.06
2023-03-20T15:17:36.296Z,9.98
2023-03-20T15:20:10.080Z,10.08
2023-03-20T15:22:48.361Z,10.15
2023-03-20T15:25:19.554Z,10.29
2023-03-20T15:27:47.264Z,10.25
2023-03-20T15:30:19.785Z,10.23
2023-03-20T15:32:49.285Z,10.24
2023-03-20T15:35:20.980Z,10.17
2023-03-20T15:37:49.690Z,10.16
2023-03-20T15:40:24.426Z,10.09
2023-03-20T15:43:04.358Z,10.02
2023-03-20T15:45:38.500Z,9.95
2023-03-20T15:48:06.868Z,9.83
2023-03-20T15:50:38.644Z,9.74
2023-03-20T15:53:11.091Z,9.89
2023-03-20T15:55:38.467Z,9.85
2023-03-20T15:58:05.395Z,9.81
2023-03-20T16:00:34.020Z,9.72
2023-03-20T16:03:08.024Z,9.47
2023-03-20T16:05:35.776Z,9.44
2023-03-20T16:08:14.914Z,9.29
2023-03-20T16:10:43.301Z,9.25
2023-03-20T16:13:18.846Z,9.10
2023-03-20T16:15:46.493Z,9.03
2023-03-20T16:18:16.619Z,9.05
2023-03-20T16:20:57.974Z,9.16
2023-03-20T16:23:33.917Z,9.08
2023-03-20T16:26:01.130Z,9.18
2023-03-20T16:28:28.693Z,9.24
2023-03-20T16:31:11.755Z,9.27
2023-03-20T16:33:40.322Z,9.21
2023-03-20T16:36:07.774Z,9.15
2023-03-20T16:38:37.415Z,8.98
2023-03-20T16:41:33.596Z,9.01
2023-03-20T16:44:08.126Z,8.93
2023-03-20T16:46:34.787Z,8.78
2023-03-20T16:49:29.644Z,8.76
2023-03-20T16:51:59.701Z,8.77
2023-03-20T16:54:31.117Z,8.64
2023-03-20T16:56:58.106Z,8.66
2023-03-20T16:59:26.001Z,8.56
2023-03-20T17:01:54.278Z,8.65
2023-03-20T17:04:33.782Z,8.65
2023-03-20T17:07:06.622Z,8.56
2023-03-20T17:09:33.523Z,8.59
2023-03-20T17:12:03.434Z,8.54
2023-03-20T17:14:30.090Z,8.49
2023-03-20T17:16:59.584Z,8.46
2023-03-20T17:19:26.228Z,8.43
2023-03-20T17:21:53.238Z,8.39
2023-03-20T17:24:20.018Z,8.33
2023-03-20T17:26:54.013Z,8.28
2023-03-20T17:29:20.784Z,8.25
2023-03-20T17:31:47.425Z,8.15
2023-03-20T17:34:14.950Z,8.17
2023-03-20T17:36:42.049Z,8.16
2023-03-20T17:39:16.907Z,8.14
2023-03-20T17:41:43.656Z,8.14
2023-03-20T17:44:10.509Z,8.11
2023-03-20T17:46:53.904Z,8.06
2023-03-20T17:49:27.412Z,8.04
2023-03-20T17:51:54.749Z,8.05
2023-03-20T17:54:21.612Z,8.09
2023-03-20T17:56:48.244Z,8.08
2023-03-20T17:59:15.126Z,8.04
2023-03-20T18:01:42.618Z,8.07
2023-03-20T18:04:20.934Z,8.05
2023-03-20T18:06:48.973Z,8.05
2023-03-20T18:09:16.137Z,8.08
2023-03-20T18:11:42.747Z,8.10
2023-03-20T18:14:12.236Z,8.09
2023-03-20T18:16:38.983Z,8.10
2023-03-20T18:19:05.689Z,8.03
2023-03-20T18:21:32.324Z,8.01
2023-03-20T18:23:58.961Z,8.05
2023-03-20T18:26:27.472Z,8.07
2023-03-20T18:28:55.332Z,8.09
2023-03-20T18:31:22.668Z,8.09
2023-03-20T18:33:51.661Z,8.07
2023-03-20T18:36:23.896Z,8.07
2023-03-20T18:38:51.900Z,8.09
2023-03-20T18:41:18.901Z,8.04
2023-03-20T18:43:48.521Z,8.07
2023-03-20T18:46:18.135Z,8.09
2023-03-20T18:48:46.203Z,8.04
2023-03-20T18:51:13.735Z,7.99
2023-03-20T18:53:41.196Z,7.96
2023-03-20T18:56:16.311Z,7.96
2023-03-20T18:58:43.692Z,7.96
2023-03-20T19:01:12.785Z,7.92
2023-03-20T19:03:42.416Z,7.92
2023-03-20T19:06:15.387Z,7.91
2023-03-20T19:08:42.990Z,7.86
2023-03-20T19:11:17.288Z,7.84
2023-03-20T19:13:49.219Z,7.83
2023-03-20T19:16:18.857Z,7.78
2023-03-20T19:18:45.952Z,7.76
2023-03-20T19:21:12.518Z,7.75
2023-03-20T19:23:39.090Z,7.74
2023-03-20T19:26:06.307Z,7.71
2023-03-20T19:28:40.746Z,7.67
2023-03-20T19:31:09.478Z,7.51
2023-03-20T19:33:38.448Z,7.43
2023-03-20T19:36:06.589Z,7.47
2023-03-20T19:38:34.316Z,7.50
2023-03-20T19:41:02.607Z,7.50
2023-03-20T19:43:29.614Z,7.52
2023-03-20T19:45:59.005Z,7.49
2023-03-20T19:48:46.141Z,7.51
2023-03-20T19:51:26.531Z,7.57
2023-03-20T19:53:54.268Z,7.54
2023-03-20T19:56:22.580Z,7.51
2023-03-20T19:58:49.918Z,7.49
2023-03-20T20:01:19.721Z,7.51
2023-03-20T20:03:46.823Z,7.54
2023-03-20T20:06:13.882Z,7.54
2023-03-20T20:08:49.417Z,7.56
2023-03-20T20:11:20.723Z,7.50
2023-03-20T20:14:05.199Z,7.53
2023-03-20T20:16:35.376Z,7.46
2023-03-20T20:19:02.522Z,7.54
2023-03-20T20:24:18.969Z,7.54
2023-03-20T20:27:00.060Z,7.55
2023-03-20T20:29:39.604Z,7.57
2023-03-20T20:32:06.345Z,7.60
2023-03-20T20:35:30.723Z,7.63
2023-03-20T20:38:09.064Z,7.64
2023-03-20T20:40:07.319Z,7.63
2023-03-20T20:42:33.911Z,7.61
2023-03-20T20:45:00.608Z,7.57
2023-03-20T20:47:27.281Z,7.54
2023-03-20T20:49:53.984Z,7.54
2023-03-20T20:52:20.786Z,7.58
2023-03-20T20:54:48.165Z,7.61
2023-03-20T20:57:15.159Z,7.59
2023-03-20T20:59:41.841Z,7.59
2023-03-20T21:02:15.438Z,7.57
2023-03-20T21:04:43.699Z,7.62
2023-03-20T21:07:13.171Z,7.65
2023-03-20T21:09:40.987Z,7.66
2023-03-20T21:12:09.935Z,7.68
2023-03-20T21:14:37.365Z,7.69
2023-03-20T21:17:06.176Z,7.69
2023-03-20T21:19:36.059Z,7.67
2023-03-20T21:22:03.473Z,7.68
2023-03-20T21:24:33.882Z,7.68
2023-03-20T21:27:11.455Z,7.69
2023-03-20T21:29:38.765Z,7.68
2023-03-20T21:32:06.766Z,7.71
2023-03-20T21:34:34.040Z,7.71
2023-03-20T21:37:29.537Z,7.74
2023-03-20T21:39:51.467Z,7.75
2023-03-20T21:42:19.151Z,7.73
2023-03-20T21:45:26.527Z,7.75
2023-03-20T21:48:23.559Z,7.73
2023-03-20T21:51:02.927Z,7.75
2023-03-20T21:53:49.580Z,7.77
2023-03-20T21:56:40.110Z,7.81
2023-03-20T22:19:00.386Z,7.88
2023-03-20T22:24:36.698Z,7.88
2023-03-20T22:27:18.733Z,7.89
2023-03-20T22:35:46.866Z,7.93
2023-03-20T22:38:21.812Z,7.93
2023-03-20T22:41:13.283Z,7.94
2023-03-20T22:46:16.750Z,7.96
2023-03-20T22:48:45.422Z,7.95
2023-03-20T22:51:13.610Z,7.94
2023-03-20T22:53:40.262Z,7.96
2023-03-20T22:56:07.513Z,7.98
2023-03-20T22:58:34.135Z,8.00
2023-03-20T23:01:01.032Z,8.02
2023-03-20T23:03:41.048Z,8.00
2023-03-20T23:06:09.210Z,8.00
2023-03-20T23:08:47.981Z,8.00
2023-03-20T23:11:17.712Z,7.96
2023-03-20T23:13:45.248Z,7.95
2023-03-20T23:16:12.299Z,7.90
2023-03-20T23:18:39.195Z,7.88
2023-03-20T23:21:06.303Z,7.92
2023-03-20T23:23:32.907Z,7.89
2023-03-20T23:26:07.082Z,7.86
2023-03-20T23:28:35.481Z,7.86
2023-03-20T23:31:10.382Z,7.80
2023-03-20T23:33:38.550Z,7.80
2023-03-20T23:36:18.746Z,7.80
2023-03-20T23:38:51.646Z,7.74
2023-03-20T23:41:19.013Z,7.71
2023-03-20T23:43:45.800Z,7.70
2023-03-20T23:46:14.765Z,7.63
2023-03-20T23:48:41.470Z,7.63
2023-03-20T23:51:08.239Z,7.65
2023-03-20T23:53:34.896Z,7.64
2023-03-20T23:56:01.732Z,7.62
2023-03-20T23:58:28.462Z,7.60
